America — PBNH — position and weather

sailwx.info

Track history (hours):
 
Tides and Currents Weather Stations Pressure Air Temp Water Temp Dewpoint Dewpoint Depression Visibility Wind Speed Wind Dir Waves Ship Positions

America

Last reported at 2018-May-17 06:49 UTC. Time now 2018-Jun-18 07:51 UTC.
Position N 35°47' E 014°50'.
Warning: this ship's position is 32 days out of date.

Length 132 m; draft 4.9 m.

Type: Cargo ship. MMSI: 245961000.

Date/timePositionNaut miles runAvg speedWind from/ knotsBaromVisibWave heightAir tempDewpointWater temp
2018-May-17 06:49N 35°47' E 014°50'0 0.0
2018-May-17 06:28N 35°47' E 014°50'0 0.0
2018-May-17 05:58N 35°47' E 014°50'0 0.0
2018-May-17 05:22N 35°47' E 014°50'0 0.0
2018-May-17 04:58N 35°47' E 014°50'0 0.0
2018-May-17 02:10N 35°47' E 014°50'0 0.0
2018-May-17 01:40N 35°47' E 014°50'0 0.0
2018-May-17 01:13N 35°47' E 014°50'0 0.0
2018-May-17 00:58N 35°47' E 014°50'0 0.0
2018-May-17 00:28N 35°47' E 014°50'0 0.0
2018-May-16 23:55N 35°47' E 014°50'0 0.0
2018-May-16 23:28N 35°47' E 014°50'0 0.0
2018-May-16 22:58N 35°47' E 014°50'0 0.0
2018-May-16 22:28N 35°47' E 014°50'0 0.0
2018-May-16 21:46N 35°47' E 014°50'0 0.1
2018-May-16 21:28N 35°47' E 014°50'0 0.0
2018-May-16 20:58N 35°47' E 014°50'0 0.0
2018-May-16 20:30N 35°47' E 014°50'0 0.0
2018-May-16 19:15N 35°47' E 014°50'0 0.0
2018-May-16 18:39N 35°47' E 014°50'0 0.1
2018-May-16 18:30N 35°47' E 014°50'0 0.0
2018-May-16 17:54N 35°47' E 014°50'0 0.1
2018-May-16 17:30N 35°47' E 014°50'0 0.0
2018-May-16 17:00N 35°47' E 014°50'0 0.0
2018-May-16 16:29N 35°47' E 014°50'0 0.0
2018-May-16 10:08N 35°47' E 014°50'0 0.0
2018-May-16 09:38N 35°47' E 014°50'0 0.0
2018-May-16 09:14N 35°47' E 014°50'0 0.0
2018-May-16 08:59N 35°47' E 014°50'0 0.0
2018-May-16 02:32N 35°47' E 014°50'0 0.0
2018-May-16 02:05N 35°47' E 014°50'0 0.0
2018-May-16 00:02N 35°47' E 014°50'0 0.1
2018-May-15 23:47N 35°47' E 014°50'4 1.2
2018-May-15 20:18N 35°49' E 014°46'413.3
2018-May-15 20:00N 35°52' E 014°43'713.3
2018-May-15 19:30N 35°56' E 014°36'5 4.2
2018-May-15 18:23N 36°01' E 014°38'3 3.3
2018-May-15 17:23N 36°01' E 014°42'514.3
2018-May-15 17:00N 35°58' E 014°36'612.2
2018-May-15 16:30N 35°54' E 014°31'1 0.1
2018-May-15 07:12N 35°53' E 014°31'0 0.0
2018-May-15 06:48N 35°53' E 014°31'0 0.0
2018-May-15 06:18N 35°53' E 014°31'0 0.0
2018-May-15 06:00N 35°53' E 014°31'0 0.0
2018-May-15 05:08N 35°53' E 014°31'0 0.0
2018-May-15 04:50N 35°53' E 014°31'0 0.0
2018-May-15 04:29N 35°53' E 014°31'0 0.0
2018-May-14 15:58N 35°53' E 014°31'0 0.0
2018-May-14 15:28N 35°53' E 014°31'0 0.0
2018-May-14 14:58N 35°53' E 014°31'0 0.0
2018-May-14 14:28N 35°53' E 014°31'0 0.0
2018-May-14 13:58N 35°53' E 014°31'0 0.0
2018-May-14 13:25N 35°53' E 014°31'0 0.0
2018-May-14 12:58N 35°53' E 014°31'0 0.0
2018-May-14 12:25N 35°53' E 014°31'  
2018-May-11 12:05N 35°54' E 014°32'1 7.3
2018-May-11 12:00N 35°55' E 014°32'2 4.6
2018-May-11 11:30N 35°56' E 014°35'2 4.7
2018-May-11 10:58N 35°56' E 014°38'4 8.1
2018-May-11 10:30N 35°54' E 014°42'8 1.0
2018-May-11 02:14N 35°48' E 014°50'0 0.0
2018-May-10 15:17N 35°48' E 014°50'0 0.0
2018-May-10 14:17N 35°48' E 014°50'0 0.0
2018-May-10 13:50N 35°48' E 014°50'0 0.0
2018-May-09 15:44N 35°48' E 014°50'0 0.0
2018-May-09 15:26N 35°48' E 014°50'0 0.0
2018-May-09 14:56N 35°48' E 014°50'0 0.0
2018-May-09 13:32N 35°48' E 014°50'0 0.2
2018-May-09 13:20N 35°48' E 014°50'0 0.0
2018-May-09 12:38N 35°48' E 014°50'0 0.0
2018-May-09 12:29N 35°48' E 014°50'0 0.0
2018-May-09 11:32N 35°48' E 014°50'0 0.1
2018-May-09 11:26N 35°48' E 014°50'0 0.0
2018-May-09 10:59N 35°48' E 014°50'0 0.0
2018-May-09 10:29N 35°48' E 014°50'0 0.0
2018-May-08 21:02N 35°49' E 014°50'0 0.0
2018-May-08 20:17N 35°49' E 014°50'0 0.1
2018-May-08 19:53N 35°49' E 014°49'0 0.0
2018-May-08 18:53N 35°49' E 014°50'0 0.0
2018-May-08 18:29N 35°49' E 014°50'0 0.0
2018-May-08 17:59N 35°49' E 014°49'0 0.1
2018-May-08 17:29N 35°48' E 014°50'0 0.1
2018-May-08 16:59N 35°48' E 014°50'0 0.0
2018-May-08 16:29N 35°48' E 014°50'0 0.0
2018-May-08 15:56N 35°48' E 014°50'0 0.0
2018-May-08 15:29N 35°48' E 014°50'0 0.0
2018-May-08 14:53N 35°48' E 014°50'0 0.0
2018-May-08 14:14N 35°48' E 014°50'0 0.0
2018-May-08 13:07N 35°48' E 014°50'0 0.1
2018-May-08 12:58N 35°48' E 014°50'0 0.0
2018-May-08 12:28N 35°48' E 014°50'0 0.0
2018-May-08 11:43N 35°48' E 014°50'0 0.0
2018-May-08 11:25N 35°48' E 014°50'0 0.0
2018-May-08 10:58N 35°48' E 014°50'0 0.0
2018-May-08 10:28N 35°48' E 014°50'0 0.0
2018-May-08 09:58N 35°48' E 014°50'0 0.0
2018-May-08 09:28N 35°48' E 014°50'0 0.0
2018-May-08 08:58N 35°48' E 014°50'0 0.0
2018-May-08 08:28N 35°48' E 014°50'0 0.0
2018-May-08 07:55N 35°48' E 014°50'0 0.0
2018-May-08 07:28N 35°48' E 014°50'0 0.0
2018-May-08 06:55N 35°48' E 014°50'0 0.0
2018-May-08 06:28N 35°49' E 014°50'0 0.0
2018-May-08 06:00N 35°49' E 014°50'0 0.0
2018-May-08 05:30N 35°49' E 014°50'0 0.0
2018-May-08 05:00N 35°49' E 014°50'0 0.0
2018-May-08 04:30N 35°49' E 014°50'0 0.0
2018-May-08 04:00N 35°49' E 014°50'0 0.0
2018-May-08 03:27N 35°49' E 014°50'0 0.0
2018-May-08 03:00N 35°49' E 014°50'0 0.1
2018-May-08 02:30N 35°49' E 014°50'0 0.0
2018-May-08 01:57N 35°49' E 014°50'0 0.0
2018-May-08 00:50N 35°49' E 014°50'0 0.0
2018-May-08 00:26N 35°49' E 014°50'0 0.0
2018-May-07 23:23N 35°49' E 014°50'0 0.1
2018-May-07 22:53N 35°48' E 014°50'0 0.0
2018-May-07 20:59N 35°48' E 014°50'0 0.0
2018-May-07 20:26N 35°48' E 014°50'0 0.1
2018-May-07 19:53N 35°49' E 014°50'0 0.0
2018-May-07 19:29N 35°49' E 014°50'0 0.1
2018-May-07 18:56N 35°48' E 014°50'0 0.1
2018-May-07 17:11N 35°49' E 014°50'0 0.0
2018-May-07 16:59N 35°49' E 014°50'0 0.1
2018-May-07 16:29N 35°48' E 014°50'0 0.0
2018-May-07 15:59N 35°48' E 014°50'0 0.0
2018-May-07 15:28N 35°48' E 014°50'0 0.0
2018-May-07 14:58N 35°48' E 014°50'0 0.0
2018-May-07 14:30N 35°48' E 014°50'0 0.0
2018-May-07 13:57N 35°48' E 014°50'0 0.1
2018-May-07 13:30N 35°48' E 014°50'0 0.1
2018-May-07 12:59N 35°48' E 014°50'0 0.0
2018-May-07 12:26N 35°48' E 014°50'0 0.0
2018-May-07 11:59N 35°48' E 014°50'0 0.1
2018-May-07 11:29N 35°48' E 014°50'0 0.0
2018-May-07 10:59N 35°48' E 014°50'0 0.1
2018-May-07 10:29N 35°48' E 014°50'0 0.0
2018-May-07 09:59N 35°48' E 014°50'0 0.0
2018-May-07 09:29N 35°48' E 014°50'0 0.0
2018-May-07 08:56N 35°48' E 014°50'0 0.0
2018-May-07 08:29N 35°48' E 014°50'0 0.0
2018-May-07 07:58N 35°48' E 014°50'0 0.0
2018-May-07 07:28N 35°48' E 014°50'0 0.0
2018-May-07 06:58N 35°48' E 014°50'  
Track history (hours):
 
Tides and Currents Weather Stations Pressure Air Temp Water Temp Dewpoint Dewpoint Depression Visibility Wind Speed Wind Dir Waves Ship Positions

America

Last reported at 2018-May-17 06:49 UTC. Time now 2018-Jun-18 07:51 UTC.
Position N 35°47' E 014°50'.
Warning: this ship's position is 32 days out of date.

Length 132 m; draft 4.9 m.

Type: Cargo ship. MMSI: 245961000.

Date/timePositionNaut miles runAvg speedWind from/ knotsBaromVisibWave heightAir tempDewpointWater temp
2018-May-17 06:49N 35°47' E 014°50'0 0.0
2018-May-17 06:28N 35°47' E 014°50'0 0.0
2018-May-17 05:58N 35°47' E 014°50'0 0.0
2018-May-17 05:22N 35°47' E 014°50'0 0.0
2018-May-17 04:58N 35°47' E 014°50'0 0.0
2018-May-17 02:10N 35°47' E 014°50'0 0.0
2018-May-17 01:40N 35°47' E 014°50'0 0.0
2018-May-17 01:13N 35°47' E 014°50'0 0.0
2018-May-17 00:58N 35°47' E 014°50'0 0.0
2018-May-17 00:28N 35°47' E 014°50'0 0.0
2018-May-16 23:55N 35°47' E 014°50'0 0.0
2018-May-16 23:28N 35°47' E 014°50'0 0.0
2018-May-16 22:58N 35°47' E 014°50'0 0.0
2018-May-16 22:28N 35°47' E 014°50'0 0.0
2018-May-16 21:46N 35°47' E 014°50'0 0.1
2018-May-16 21:28N 35°47' E 014°50'0 0.0
2018-May-16 20:58N 35°47' E 014°50'0 0.0
2018-May-16 20:30N 35°47' E 014°50'0 0.0
2018-May-16 19:15N 35°47' E 014°50'0 0.0
2018-May-16 18:39N 35°47' E 014°50'0 0.1
2018-May-16 18:30N 35°47' E 014°50'0 0.0
2018-May-16 17:54N 35°47' E 014°50'0 0.1
2018-May-16 17:30N 35°47' E 014°50'0 0.0
2018-May-16 17:00N 35°47' E 014°50'0 0.0
2018-May-16 16:29N 35°47' E 014°50'0 0.0
2018-May-16 10:08N 35°47' E 014°50'0 0.0
2018-May-16 09:38N 35°47' E 014°50'0 0.0
2018-May-16 09:14N 35°47' E 014°50'0 0.0
2018-May-16 08:59N 35°47' E 014°50'0 0.0
2018-May-16 02:32N 35°47' E 014°50'0 0.0
2018-May-16 02:05N 35°47' E 014°50'0 0.0
2018-May-16 00:02N 35°47' E 014°50'0 0.1
2018-May-15 23:47N 35°47' E 014°50'4 1.2
2018-May-15 20:18N 35°49' E 014°46'413.3
2018-May-15 20:00N 35°52' E 014°43'713.3
2018-May-15 19:30N 35°56' E 014°36'5 4.2
2018-May-15 18:23N 36°01' E 014°38'3 3.3
2018-May-15 17:23N 36°01' E 014°42'514.3
2018-May-15 17:00N 35°58' E 014°36'612.2
2018-May-15 16:30N 35°54' E 014°31'1 0.1
2018-May-15 07:12N 35°53' E 014°31'0 0.0
2018-May-15 06:48N 35°53' E 014°31'0 0.0
2018-May-15 06:18N 35°53' E 014°31'0 0.0
2018-May-15 06:00N 35°53' E 014°31'0 0.0
2018-May-15 05:08N 35°53' E 014°31'0 0.0
2018-May-15 04:50N 35°53' E 014°31'0 0.0
2018-May-15 04:29N 35°53' E 014°31'0 0.0
2018-May-14 15:58N 35°53' E 014°31'0 0.0
2018-May-14 15:28N 35°53' E 014°31'0 0.0
2018-May-14 14:58N 35°53' E 014°31'0 0.0
2018-May-14 14:28N 35°53' E 014°31'0 0.0
2018-May-14 13:58N 35°53' E 014°31'0 0.0
2018-May-14 13:25N 35°53' E 014°31'0 0.0
2018-May-14 12:58N 35°53' E 014°31'0 0.0
2018-May-14 12:25N 35°53' E 014°31'  
2018-May-11 12:05N 35°54' E 014°32'1 7.3
2018-May-11 12:00N 35°55' E 014°32'2 4.6
2018-May-11 11:30N 35°56' E 014°35'2 4.7
2018-May-11 10:58N 35°56' E 014°38'4 8.1
2018-May-11 10:30N 35°54' E 014°42'8 1.0
2018-May-11 02:14N 35°48' E 014°50'0 0.0
2018-May-10 15:17N 35°48' E 014°50'0 0.0
2018-May-10 14:17N 35°48' E 014°50'0 0.0
2018-May-10 13:50N 35°48' E 014°50'0 0.0
2018-May-09 15:44N 35°48' E 014°50'0 0.0
2018-May-09 15:26N 35°48' E 014°50'0 0.0
2018-May-09 14:56N 35°48' E 014°50'0 0.0
2018-May-09 13:32N 35°48' E 014°50'0 0.2
2018-May-09 13:20N 35°48' E 014°50'0 0.0
2018-May-09 12:38N 35°48' E 014°50'0 0.0
2018-May-09 12:29N 35°48' E 014°50'0 0.0
2018-May-09 11:32N 35°48' E 014°50'0 0.1
2018-May-09 11:26N 35°48' E 014°50'0 0.0
2018-May-09 10:59N 35°48' E 014°50'0 0.0
2018-May-09 10:29N 35°48' E 014°50'0 0.0
2018-May-08 21:02N 35°49' E 014°50'0 0.0
2018-May-08 20:17N 35°49' E 014°50'0 0.1
2018-May-08 19:53N 35°49' E 014°49'0 0.0
2018-May-08 18:53N 35°49' E 014°50'0 0.0
2018-May-08 18:29N 35°49' E 014°50'0 0.0
2018-May-08 17:59N 35°49' E 014°49'0 0.1
2018-May-08 17:29N 35°48' E 014°50'0 0.1
2018-May-08 16:59N 35°48' E 014°50'0 0.0
2018-May-08 16:29N 35°48' E 014°50'0 0.0
2018-May-08 15:56N 35°48' E 014°50'0 0.0
2018-May-08 15:29N 35°48' E 014°50'0 0.0
2018-May-08 14:53N 35°48' E 014°50'0 0.0
2018-May-08 14:14N 35°48' E 014°50'0 0.0
2018-May-08 13:07N 35°48' E 014°50'0 0.1
2018-May-08 12:58N 35°48' E 014°50'0 0.0
2018-May-08 12:28N 35°48' E 014°50'0 0.0
2018-May-08 11:43N 35°48' E 014°50'0 0.0
2018-May-08 11:25N 35°48' E 014°50'0 0.0
2018-May-08 10:58N 35°48' E 014°50'0 0.0
2018-May-08 10:28N 35°48' E 014°50'0 0.0
2018-May-08 09:58N 35°48' E 014°50'0 0.0
2018-May-08 09:28N 35°48' E 014°50'0 0.0
2018-May-08 08:58N 35°48' E 014°50'0 0.0
2018-May-08 08:28N 35°48' E 014°50'0 0.0
2018-May-08 07:55N 35°48' E 014°50'0 0.0
2018-May-08 07:28N 35°48' E 014°50'0 0.0
2018-May-08 06:55N 35°48' E 014°50'0 0.0
2018-May-08 06:28N 35°49' E 014°50'0 0.0
2018-May-08 06:00N 35°49' E 014°50'0 0.0
2018-May-08 05:30N 35°49' E 014°50'0 0.0
2018-May-08 05:00N 35°49' E 014°50'0 0.0
2018-May-08 04:30N 35°49' E 014°50'0 0.0
2018-May-08 04:00N 35°49' E 014°50'0 0.0
2018-May-08 03:27N 35°49' E 014°50'0 0.0
2018-May-08 03:00N 35°49' E 014°50'0 0.1
2018-May-08 02:30N 35°49' E 014°50'0 0.0
2018-May-08 01:57N 35°49' E 014°50'0 0.0
2018-May-08 00:50N 35°49' E 014°50'0 0.0
2018-May-08 00:26N 35°49' E 014°50'0 0.0
2018-May-07 23:23N 35°49' E 014°50'0 0.1
2018-May-07 22:53N 35°48' E 014°50'0 0.0
2018-May-07 20:59N 35°48' E 014°50'0 0.0
2018-May-07 20:26N 35°48' E 014°50'0 0.1
2018-May-07 19:53N 35°49' E 014°50'0 0.0
2018-May-07 19:29N 35°49' E 014°50'0 0.1
2018-May-07 18:56N 35°48' E 014°50'0 0.1
2018-May-07 17:11N 35°49' E 014°50'0 0.0
2018-May-07 16:59N 35°49' E 014°50'0 0.1
2018-May-07 16:29N 35°48' E 014°50'0 0.0
2018-May-07 15:59N 35°48' E 014°50'0 0.0
2018-May-07 15:28N 35°48' E 014°50'0 0.0
2018-May-07 14:58N 35°48' E 014°50'0 0.0
2018-May-07 14:30N 35°48' E 014°50'0 0.0
2018-May-07 13:57N 35°48' E 014°50'0 0.1
2018-May-07 13:30N 35°48' E 014°50'0 0.1
2018-May-07 12:59N 35°48' E 014°50'0 0.0
2018-May-07 12:26N 35°48' E 014°50'0 0.0
2018-May-07 11:59N 35°48' E 014°50'0 0.1
2018-May-07 11:29N 35°48' E 014°50'0 0.0
2018-May-07 10:59N 35°48' E 014°50'0 0.1
2018-May-07 10:29N 35°48' E 014°50'0 0.0
2018-May-07 09:59N 35°48' E 014°50'0 0.0
2018-May-07 09:29N 35°48' E 014°50'0 0.0
2018-May-07 08:56N 35°48' E 014°50'0 0.0
2018-May-07 08:29N 35°48' E 014°50'0 0.0
2018-May-07 07:58N 35°48' E 014°50'0 0.0
2018-May-07 07:28N 35°48' E 014°50'0 0.0
2018-May-07 06:58N 35°48' E 014°50'  

Dump ship's entire track history